French Village, Canada
Current Conditions -  °F | °C
As of 4:00 AM on Monday 24 Nov 2014 (Local Time) from CYHZ Reporting Station
Overcast Overcast  
Wind Chill: -1°   Ceiling: 4200
Heat Index:   Visibility: 15mi
Dew Point:   Wind: 9mph
Humidity: 87%   Direction: 170°S
Pressure: 30.24"   Gusts: NA
Location:  44.7°N, 63.88°W
Report Text: CYHZ 240800Z 17008KT 15SM OVC042 03/01 A3024 RMK SC8 SLP244
Loading
Personal Weather Stations






























Interactive Weather Map New forecast layout! Learn more

10-Day Weather Forecast

Advertisements
Track Severe Weather on mobile